sensor_id;sensor_type;location;lat;lon;timestamp;P1;durP1;ratioP1;P2;durP2;ratioP2
9115;SDS011;4593;53.652;10.168;2022-09-01T00:02:06;2.17;;;1.90;;
9115;SDS011;4593;53.652;10.168;2022-09-01T00:04:33;1.60;;;1.50;;
9115;SDS011;4593;53.652;10.168;2022-09-01T00:07:05;1.80;;;1.70;;
9115;SDS011;4593;53.652;10.168;2022-09-01T00:09:32;2.27;;;1.80;;
9115;SDS011;4593;53.652;10.168;2022-09-01T00:11:58;2.53;;;1.70;;
9115;SDS011;4593;53.652;10.168;2022-09-01T00:14:27;1.60;;;1.50;;
9115;SDS011;4593;53.652;10.168;2022-09-01T00:16:54;1.80;;;1.70;;
9115;SDS011;4593;53.652;10.168;2022-09-01T00:19:21;1.70;;;1.60;;
9115;SDS011;4593;53.652;10.168;2022-09-01T00:21:47;1.73;;;1.63;;
9115;SDS011;4593;53.652;10.168;2022-09-01T00:24:13;1.80;;;1.70;;
9115;SDS011;4593;53.652;10.168;2022-09-01T00:26:41;1.80;;;1.70;;
9115;SDS011;4593;53.652;10.168;2022-09-01T00:29:07;1.83;;;1.73;;
9115;SDS011;4593;53.652;10.168;2022-09-01T00:31:33;2.20;;;2.00;;
9115;SDS011;4593;53.652;10.168;2022-09-01T00:33:59;1.90;;;1.80;;
9115;SDS011;4593;53.652;10.168;2022-09-01T00:36:25;1.90;;;1.80;;
9115;SDS011;4593;53.652;10.168;2022-09-01T00:38:51;1.90;;;1.80;;
9115;SDS011;4593;53.652;10.168;2022-09-01T00:41:19;1.67;;;1.57;;
9115;SDS011;4593;53.652;10.168;2022-09-01T00:43:47;2.27;;;1.80;;
9115;SDS011;4593;53.652;10.168;2022-09-01T00:46:18;1.87;;;1.77;;
9115;SDS011;4593;53.652;10.168;2022-09-01T00:48:45;1.93;;;1.73;;
9115;SDS011;4593;53.652;10.168;2022-09-01T00:51:12;3.37;;;1.63;;
9115;SDS011;4593;53.652;10.168;2022-09-01T00:53:38;1.70;;;1.60;;
9115;SDS011;4593;53.652;10.168;2022-09-01T00:56:06;2.13;;;1.93;;
9115;SDS011;4593;53.652;10.168;2022-09-01T00:58:32;2.17;;;1.80;;
9115;SDS011;4593;53.652;10.168;2022-09-01T01:00:59;2.03;;;1.93;;
9115;SDS011;4593;53.652;10.168;2022-09-01T01:03:26;2.87;;;2.30;;
9115;SDS011;4593;53.652;10.168;2022-09-01T01:05:54;2.17;;;1.97;;
9115;SDS011;4593;53.652;10.168;2022-09-01T01:08:26;2.30;;;2.10;;
9115;SDS011;4593;53.652;10.168;2022-09-01T01:10:58;2.00;;;1.80;;
9115;SDS011;4593;53.652;10.168;2022-09-01T01:13:26;2.30;;;2.10;;
9115;SDS011;4593;53.652;10.168;2022-09-01T01:16:00;2.63;;;1.93;;
9115;SDS011;4593;53.652;10.168;2022-09-01T01:18:27;1.90;;;1.80;;
9115;SDS011;4593;53.652;10.168;2022-09-01T01:20:58;1.83;;;1.73;;
9115;SDS011;4593;53.652;10.168;2022-09-01T01:24:00;1.90;;;1.80;;
9115;SDS011;4593;53.652;10.168;2022-09-01T01:26:42;2.70;;;2.03;;
9115;SDS011;4593;53.652;10.168;2022-09-01T01:29:08;3.00;;;1.83;;
9115;SDS011;4593;53.652;10.168;2022-09-01T01:31:34;2.00;;;1.80;;
9115;SDS011;4593;53.652;10.168;2022-09-01T01:34:01;2.20;;;2.00;;
9115;SDS011;4593;53.652;10.168;2022-09-01T01:36:32;2.17;;;2.00;;
9115;SDS011;4593;53.652;10.168;2022-09-01T01:39:03;1.83;;;1.73;;
9115;SDS011;4593;53.652;10.168;2022-09-01T01:41:40;2.13;;;1.80;;
9115;SDS011;4593;53.652;10.168;2022-09-01T01:44:09;2.30;;;2.07;;
9115;SDS011;4593;53.652;10.168;2022-09-01T01:46:39;2.00;;;1.90;;
9115;SDS011;4593;53.652;10.168;2022-09-01T01:49:07;3.00;;;1.90;;
9115;SDS011;4593;53.652;10.168;2022-09-01T01:51:33;2.33;;;2.13;;
9115;SDS011;4593;53.652;10.168;2022-09-01T01:53:59;2.00;;;1.90;;
9115;SDS011;4593;53.652;10.168;2022-09-01T01:56:29;1.97;;;1.83;;
9115;SDS011;4593;53.652;10.168;2022-09-01T01:58:57;1.90;;;1.80;;
9115;SDS011;4593;53.652;10.168;2022-09-01T02:01:24;2.30;;;2.00;;
9115;SDS011;4593;53.652;10.168;2022-09-01T02:03:52;3.17;;;2.20;;
9115;SDS011;4593;53.652;10.168;2022-09-01T02:06:19;2.33;;;2.13;;
9115;SDS011;4593;53.652;10.168;2022-09-01T02:08:48;3.60;;;2.20;;
9115;SDS011;4593;53.652;10.168;2022-09-01T02:11:19;2.50;;;2.30;;
9115;SDS011;4593;53.652;10.168;2022-09-01T02:13:45;2.00;;;1.90;;
9115;SDS011;4593;53.652;10.168;2022-09-01T02:16:14;2.10;;;1.97;;
9115;SDS011;4593;53.652;10.168;2022-09-01T02:18:44;2.80;;;2.03;;
9115;SDS011;4593;53.652;10.168;2022-09-01T02:21:15;2.20;;;2.00;;
9115;SDS011;4593;53.652;10.168;2022-09-01T02:23:43;2.20;;;2.00;;
9115;SDS011;4593;53.652;10.168;2022-09-01T02:26:11;2.00;;;1.80;;
9115;SDS011;4593;53.652;10.168;2022-09-01T02:28:38;2.30;;;2.10;;
9115;SDS011;4593;53.652;10.168;2022-09-01T02:31:06;2.47;;;2.27;;
9115;SDS011;4593;53.652;10.168;2022-09-01T02:33:33;2.30;;;2.10;;
9115;SDS011;4593;53.652;10.168;2022-09-01T02:36:01;2.17;;;2.07;;
9115;SDS011;4593;53.652;10.168;2022-09-01T02:38:28;2.30;;;2.10;;
9115;SDS011;4593;53.652;10.168;2022-09-01T02:40:58;2.23;;;2.07;;
9115;SDS011;4593;53.652;10.168;2022-09-01T02:43:26;2.60;;;2.40;;
9115;SDS011;4593;53.652;10.168;2022-09-01T02:45:57;2.83;;;2.10;;
9115;SDS011;4593;53.652;10.168;2022-09-01T02:48:31;2.00;;;1.90;;
9115;SDS011;4593;53.652;10.168;2022-09-01T02:51:05;4.63;;;2.17;;
9115;SDS011;4593;53.652;10.168;2022-09-01T02:53:31;2.23;;;2.10;;
9115;SDS011;4593;53.652;10.168;2022-09-01T02:56:01;2.50;;;2.30;;
9115;SDS011;4593;53.652;10.168;2022-09-01T02:58:33;2.53;;;2.33;;
9115;SDS011;4593;53.652;10.168;2022-09-01T03:00:59;2.30;;;2.10;;
9115;SDS011;4593;53.652;10.168;2022-09-01T03:03:25;2.60;;;2.40;;
9115;SDS011;4593;53.652;10.168;2022-09-01T03:05:51;3.23;;;2.57;;
9115;SDS011;4593;53.652;10.168;2022-09-01T03:08:21;3.37;;;2.40;;
9115;SDS011;4593;53.652;10.168;2022-09-01T03:10:48;2.27;;;2.13;;
9115;SDS011;4593;53.652;10.168;2022-09-01T03:13:17;2.77;;;2.40;;
9115;SDS011;4593;53.652;10.168;2022-09-01T03:15:46;2.97;;;2.27;;
9115;SDS011;4593;53.652;10.168;2022-09-01T03:18:14;2.53;;;2.33;;
9115;SDS011;4593;53.652;10.168;2022-09-01T03:20:42;2.33;;;2.17;;
9115;SDS011;4593;53.652;10.168;2022-09-01T03:23:11;2.53;;;2.33;;
9115;SDS011;4593;53.652;10.168;2022-09-01T03:25:40;2.13;;;2.03;;
9115;SDS011;4593;53.652;10.168;2022-09-01T03:28:06;2.30;;;1.97;;
9115;SDS011;4593;53.652;10.168;2022-09-01T03:30:34;2.33;;;2.13;;
9115;SDS011;4593;53.652;10.168;2022-09-01T03:33:04;2.00;;;1.90;;
9115;SDS011;4593;53.652;10.168;2022-09-01T03:35:30;2.53;;;2.33;;
9115;SDS011;4593;53.652;10.168;2022-09-01T03:37:56;2.50;;;2.30;;
9115;SDS011;4593;53.652;10.168;2022-09-01T03:40:27;2.47;;;2.27;;
9115;SDS011;4593;53.652;10.168;2022-09-01T03:42:56;2.50;;;2.30;;
9115;SDS011;4593;53.652;10.168;2022-09-01T03:45:25;1.90;;;1.80;;
9115;SDS011;4593;53.652;10.168;2022-09-01T03:47:53;2.43;;;2.00;;
9115;SDS011;4593;53.652;10.168;2022-09-01T03:50:20;2.40;;;2.20;;
9115;SDS011;4593;53.652;10.168;2022-09-01T03:55:25;2.60;;;2.40;;
9115;SDS011;4593;53.652;10.168;2022-09-01T03:57:53;2.43;;;2.10;;
9115;SDS011;4593;53.652;10.168;2022-09-01T04:00:21;2.37;;;2.17;;
9115;SDS011;4593;53.652;10.168;2022-09-01T04:02:48;2.70;;;2.50;;
9115;SDS011;4593;53.652;10.168;2022-09-01T04:05:19;2.93;;;2.47;;
9115;SDS011;4593;53.652;10.168;2022-09-01T04:07:47;4.40;;;2.27;;
9115;SDS011;4593;53.652;10.168;2022-09-01T04:10:14;2.50;;;2.30;;
9115;SDS011;4593;53.652;10.168;2022-09-01T04:12:42;2.70;;;2.50;;
9115;SDS011;4593;53.652;10.168;2022-09-01T04:15:08;2.70;;;2.30;;
9115;SDS011;4593;53.652;10.168;2022-09-01T04:17:34;2.70;;;2.50;;
9115;SDS011;4593;53.652;10.168;2022-09-01T04:20:19;2.50;;;2.30;;
9115;SDS011;4593;53.652;10.168;2022-09-01T04:22:46;2.53;;;2.33;;
9115;SDS011;4593;53.652;10.168;2022-09-01T04:25:14;2.73;;;2.40;;
9115;SDS011;4593;53.652;10.168;2022-09-01T04:27:41;3.20;;;2.90;;
9115;SDS011;4593;53.652;10.168;2022-09-01T04:30:10;2.67;;;2.40;;
9115;SDS011;4593;53.652;10.168;2022-09-01T04:32:36;4.40;;;2.47;;
9115;SDS011;4593;53.652;10.168;2022-09-01T04:35:04;3.60;;;2.30;;
9115;SDS011;4593;53.652;10.168;2022-09-01T04:37:31;2.60;;;2.40;;
9115;SDS011;4593;53.652;10.168;2022-09-01T04:40:00;2.80;;;2.60;;
9115;SDS011;4593;53.652;10.168;2022-09-01T04:42:27;3.20;;;2.70;;
9115;SDS011;4593;53.652;10.168;2022-09-01T04:44:56;2.53;;;2.33;;
9115;SDS011;4593;53.652;10.168;2022-09-01T04:47:24;3.30;;;2.50;;
9115;SDS011;4593;53.652;10.168;2022-09-01T04:49:56;2.40;;;2.20;;
9115;SDS011;4593;53.652;10.168;2022-09-01T04:52:24;2.63;;;2.43;;
9115;SDS011;4593;53.652;10.168;2022-09-01T04:54:50;2.60;;;2.40;;
9115;SDS011;4593;53.652;10.168;2022-09-01T04:57:18;3.23;;;2.20;;
9115;SDS011;4593;53.652;10.168;2022-09-01T04:59:47;3.20;;;2.60;;
9115;SDS011;4593;53.652;10.168;2022-09-01T05:02:14;2.80;;;2.50;;
9115;SDS011;4593;53.652;10.168;2022-09-01T05:04:40;2.93;;;2.70;;
9115;SDS011;4593;53.652;10.168;2022-09-01T05:07:09;3.33;;;2.30;;
9115;SDS011;4593;53.652;10.168;2022-09-01T05:09:35;2.80;;;2.60;;
9115;SDS011;4593;53.652;10.168;2022-09-01T05:12:04;3.30;;;2.60;;
9115;SDS011;4593;53.652;10.168;2022-09-01T05:14:39;3.13;;;2.80;;
9115;SDS011;4593;53.652;10.168;2022-09-01T05:17:07;3.33;;;2.40;;
9115;SDS011;4593;53.652;10.168;2022-09-01T05:19:41;5.80;;;2.90;;
9115;SDS011;4593;53.652;10.168;2022-09-01T05:22:08;2.80;;;2.50;;
9115;SDS011;4593;53.652;10.168;2022-09-01T05:24:34;3.13;;;2.80;;
9115;SDS011;4593;53.652;10.168;2022-09-01T05:27:03;3.07;;;2.77;;
9115;SDS011;4593;53.652;10.168;2022-09-01T05:29:29;3.23;;;2.83;;
9115;SDS011;4593;53.652;10.168;2022-09-01T05:31:55;3.80;;;2.90;;
9115;SDS011;4593;53.652;10.168;2022-09-01T05:34:22;3.43;;;3.13;;
9115;SDS011;4593;53.652;10.168;2022-09-01T05:36:55;3.17;;;2.87;;
9115;SDS011;4593;53.652;10.168;2022-09-01T05:39:23;2.90;;;2.70;;
9115;SDS011;4593;53.652;10.168;2022-09-01T05:41:50;2.70;;;2.50;;
9115;SDS011;4593;53.652;10.168;2022-09-01T05:44:16;3.53;;;3.13;;
9115;SDS011;4593;53.652;10.168;2022-09-01T05:46:42;3.90;;;3.43;;
9115;SDS011;4593;53.652;10.168;2022-09-01T05:49:09;4.57;;;3.23;;
9115;SDS011;4593;53.652;10.168;2022-09-01T05:51:43;4.97;;;3.90;;
9115;SDS011;4593;53.652;10.168;2022-09-01T05:54:17;3.53;;;3.23;;
9115;SDS011;4593;53.652;10.168;2022-09-01T05:56:47;3.23;;;2.93;;
9115;SDS011;4593;53.652;10.168;2022-09-01T05:59:14;5.27;;;3.17;;
9115;SDS011;4593;53.652;10.168;2022-09-01T06:01:40;3.60;;;3.30;;
9115;SDS011;4593;53.652;10.168;2022-09-01T06:04:06;3.80;;;3.50;;
9115;SDS011;4593;53.652;10.168;2022-09-01T06:06:37;5.87;;;3.10;;
9115;SDS011;4593;53.652;10.168;2022-09-01T06:09:10;3.63;;;3.33;;
9115;SDS011;4593;53.652;10.168;2022-09-01T06:11:37;3.53;;;3.00;;
9115;SDS011;4593;53.652;10.168;2022-09-01T06:14:06;3.83;;;3.00;;
9115;SDS011;4593;53.652;10.168;2022-09-01T06:16:32;2.87;;;2.57;;
9115;SDS011;4593;53.652;10.168;2022-09-01T06:19:00;2.97;;;2.67;;
9115;SDS011;4593;53.652;10.168;2022-09-01T06:21:26;3.07;;;2.40;;
9115;SDS011;4593;53.652;10.168;2022-09-01T06:23:53;2.53;;;2.30;;
9115;SDS011;4593;53.652;10.168;2022-09-01T06:26:21;2.30;;;2.10;;
9115;SDS011;4593;53.652;10.168;2022-09-01T06:28:56;3.73;;;2.63;;
9115;SDS011;4593;53.652;10.168;2022-09-01T06:31:25;4.80;;;2.50;;
9115;SDS011;4593;53.652;10.168;2022-09-01T06:33:52;6.07;;;2.30;;
9115;SDS011;4593;53.652;10.168;2022-09-01T06:36:22;2.23;;;2.07;;
9115;SDS011;4593;53.652;10.168;2022-09-01T06:38:50;2.37;;;2.27;;
9115;SDS011;4593;53.652;10.168;2022-09-01T06:41:17;2.43;;;2.20;;
9115;SDS011;4593;53.652;10.168;2022-09-01T06:43:44;2.43;;;2.10;;
9115;SDS011;4593;53.652;10.168;2022-09-01T06:46:11;4.43;;;2.10;;
9115;SDS011;4593;53.652;10.168;2022-09-01T06:48:37;5.20;;;1.83;;
9115;SDS011;4593;53.652;10.168;2022-09-01T06:51:14;2.43;;;1.80;;
9115;SDS011;4593;53.652;10.168;2022-09-01T06:53:43;1.80;;;1.70;;
9115;SDS011;4593;53.652;10.168;2022-09-01T06:56:10;4.37;;;2.13;;
9115;SDS011;4593;53.652;10.168;2022-09-01T06:58:38;1.70;;;1.60;;
9115;SDS011;4593;53.652;10.168;2022-09-01T07:01:08;1.60;;;1.50;;
9115;SDS011;4593;53.652;10.168;2022-09-01T07:03:41;2.50;;;1.83;;
9115;SDS011;4593;53.652;10.168;2022-09-01T07:06:08;1.67;;;1.57;;
9115;SDS011;4593;53.652;10.168;2022-09-01T07:08:35;2.13;;;1.60;;
9115;SDS011;4593;53.652;10.168;2022-09-01T07:11:04;4.07;;;1.70;;
9115;SDS011;4593;53.652;10.168;2022-09-01T07:13:31;2.53;;;1.50;;
9115;SDS011;4593;53.652;10.168;2022-09-01T07:15:58;2.30;;;1.60;;
9115;SDS011;4593;53.652;10.168;2022-09-01T07:18:25;1.50;;;1.40;;
9115;SDS011;4593;53.652;10.168;2022-09-01T07:20:51;1.60;;;1.50;;
9115;SDS011;4593;53.652;10.168;2022-09-01T07:23:18;1.50;;;1.40;;
9115;SDS011;4593;53.652;10.168;2022-09-01T07:25:46;2.53;;;1.53;;
9115;SDS011;4593;53.652;10.168;2022-09-01T07:28:14;3.83;;;1.40;;
9115;SDS011;4593;53.652;10.168;2022-09-01T07:30:48;1.60;;;1.50;;
9115;SDS011;4593;53.652;10.168;2022-09-01T07:33:15;1.40;;;1.30;;
9115;SDS011;4593;53.652;10.168;2022-09-01T07:35:47;1.50;;;1.40;;
9115;SDS011;4593;53.652;10.168;2022-09-01T07:38:14;3.73;;;1.50;;
9115;SDS011;4593;53.652;10.168;2022-09-01T07:40:43;1.63;;;1.40;;
9115;SDS011;4593;53.652;10.168;2022-09-01T07:43:20;1.73;;;1.63;;
9115;SDS011;4593;53.652;10.168;2022-09-01T07:45:49;1.50;;;1.40;;
9115;SDS011;4593;53.652;10.168;2022-09-01T07:48:16;3.00;;;1.60;;
9115;SDS011;4593;53.652;10.168;2022-09-01T07:50:47;2.00;;;1.37;;
9115;SDS011;4593;53.652;10.168;2022-09-01T07:53:14;1.33;;;1.23;;
9115;SDS011;4593;53.652;10.168;2022-09-01T07:55:46;1.77;;;1.33;;
9115;SDS011;4593;53.652;10.168;2022-09-01T07:58:15;1.20;;;1.20;;
9115;SDS011;4593;53.652;10.168;2022-09-01T08:00:41;5.50;;;1.50;;
9115;SDS011;4593;53.652;10.168;2022-09-01T08:03:08;1.20;;;1.20;;
9115;SDS011;4593;53.652;10.168;2022-09-01T08:05:34;1.50;;;1.40;;
9115;SDS011;4593;53.652;10.168;2022-09-01T08:08:00;1.50;;;1.40;;
9115;SDS011;4593;53.652;10.168;2022-09-01T08:10:26;1.70;;;1.50;;
9115;SDS011;4593;53.652;10.168;2022-09-01T08:12:52;2.10;;;1.30;;
9115;SDS011;4593;53.652;10.168;2022-09-01T08:15:18;1.50;;;1.40;;
9115;SDS011;4593;53.652;10.168;2022-09-01T08:17:44;1.27;;;1.27;;
9115;SDS011;4593;53.652;10.168;2022-09-01T08:20:10;2.80;;;1.50;;
9115;SDS011;4593;53.652;10.168;2022-09-01T08:22:37;1.50;;;1.40;;
9115;SDS011;4593;53.652;10.168;2022-09-01T08:25:07;1.50;;;1.40;;
9115;SDS011;4593;53.652;10.168;2022-09-01T08:27:34;3.20;;;1.40;;
9115;SDS011;4593;53.652;10.168;2022-09-01T08:30:04;2.47;;;1.40;;
9115;SDS011;4593;53.652;10.168;2022-09-01T08:32:31;1.40;;;1.30;;
9115;SDS011;4593;53.652;10.168;2022-09-01T08:34:57;1.40;;;1.30;;
9115;SDS011;4593;53.652;10.168;2022-09-01T08:37:23;1.30;;;1.30;;
9115;SDS011;4593;53.652;10.168;2022-09-01T08:39:49;1.27;;;1.27;;
9115;SDS011;4593;53.652;10.168;2022-09-01T08:45:08;1.10;;;1.10;;
9115;SDS011;4593;53.652;10.168;2022-09-01T08:47:37;2.50;;;1.47;;
9115;SDS011;4593;53.652;10.168;2022-09-01T08:50:03;1.20;;;1.20;;
9115;SDS011;4593;53.652;10.168;2022-09-01T08:52:32;1.37;;;1.27;;
9115;SDS011;4593;53.652;10.168;2022-09-01T09:00:07;1.23;;;1.23;;
9115;SDS011;4593;53.652;10.168;2022-09-01T09:10:51;1.40;;;1.30;;
9115;SDS011;4593;53.652;10.168;2022-09-01T09:13:21;1.33;;;1.23;;
9115;SDS011;4593;53.652;10.168;2022-09-01T09:19:36;3.57;;;1.33;;
9115;SDS011;4593;53.652;10.168;2022-09-01T09:21:43;1.47;;;1.37;;
9115;SDS011;4593;53.652;10.168;2022-09-01T09:26:35;1.20;;;1.20;;
9115;SDS011;4593;53.652;10.168;2022-09-01T09:29:01;1.17;;;1.17;;
9115;SDS011;4593;53.652;10.168;2022-09-01T09:31:30;1.93;;;1.40;;
9115;SDS011;4593;53.652;10.168;2022-09-01T09:33:56;1.47;;;1.37;;
9115;SDS011;4593;53.652;10.168;2022-09-01T09:36:29;1.53;;;1.20;;
9115;SDS011;4593;53.652;10.168;2022-09-01T09:39:05;1.40;;;1.30;;
9115;SDS011;4593;53.652;10.168;2022-09-01T09:41:32;3.77;;;1.40;;
9115;SDS011;4593;53.652;10.168;2022-09-01T09:43:59;1.37;;;1.27;;
9115;SDS011;4593;53.652;10.168;2022-09-01T09:49:07;1.13;;;1.13;;
9115;SDS011;4593;53.652;10.168;2022-09-01T09:51:37;1.80;;;1.30;;
9115;SDS011;4593;53.652;10.168;2022-09-01T09:56:40;1.97;;;1.13;;
9115;SDS011;4593;53.652;10.168;2022-09-01T09:59:27;1.77;;;1.30;;
9115;SDS011;4593;53.652;10.168;2022-09-01T10:01:59;1.20;;;1.10;;
9115;SDS011;4593;53.652;10.168;2022-09-01T10:04:33;1.27;;;1.20;;
9115;SDS011;4593;53.652;10.168;2022-09-01T10:07:26;1.33;;;1.23;;
9115;SDS011;4593;53.652;10.168;2022-09-01T10:09:49;1.33;;;1.30;;
9115;SDS011;4593;53.652;10.168;2022-09-01T10:12:15;1.27;;;1.20;;
9115;SDS011;4593;53.652;10.168;2022-09-01T10:14:52;1.17;;;1.17;;
9115;SDS011;4593;53.652;10.168;2022-09-01T10:17:33;1.40;;;1.30;;
9115;SDS011;4593;53.652;10.168;2022-09-01T10:20:08;1.50;;;1.40;;
9115;SDS011;4593;53.652;10.168;2022-09-01T10:22:41;2.00;;;1.20;;
9115;SDS011;4593;53.652;10.168;2022-09-01T10:25:08;1.20;;;1.20;;
9115;SDS011;4593;53.652;10.168;2022-09-01T10:27:36;2.13;;;1.40;;
9115;SDS011;4593;53.652;10.168;2022-09-01T10:30:06;1.50;;;1.40;;
9115;SDS011;4593;53.652;10.168;2022-09-01T10:32:44;2.33;;;1.30;;
9115;SDS011;4593;53.652;10.168;2022-09-01T10:35:15;1.50;;;1.40;;
9115;SDS011;4593;53.652;10.168;2022-09-01T10:37:43;1.57;;;1.47;;
9115;SDS011;4593;53.652;10.168;2022-09-01T10:42:38;2.27;;;1.30;;
9115;SDS011;4593;53.652;10.168;2022-09-01T10:45:06;2.37;;;1.20;;
9115;SDS011;4593;53.652;10.168;2022-09-01T10:47:41;3.00;;;1.60;;
9115;SDS011;4593;53.652;10.168;2022-09-01T10:52:53;2.67;;;1.63;;
9115;SDS011;4593;53.652;10.168;2022-09-01T10:55:21;1.50;;;1.40;;
9115;SDS011;4593;53.652;10.168;2022-09-01T10:57:59;1.40;;;1.30;;
9115;SDS011;4593;53.652;10.168;2022-09-01T11:11:11;3.17;;;1.37;;
9115;SDS011;4593;53.652;10.168;2022-09-01T11:13:47;1.50;;;1.40;;
9115;SDS011;4593;53.652;10.168;2022-09-01T11:16:23;1.30;;;1.20;;
9115;SDS011;4593;53.652;10.168;2022-09-01T11:18:51;4.17;;;1.40;;
9115;SDS011;4593;53.652;10.168;2022-09-01T11:21:28;2.03;;;1.33;;
9115;SDS011;4593;53.652;10.168;2022-09-01T11:27:00;1.33;;;1.23;;
9115;SDS011;4593;53.652;10.168;2022-09-01T11:32:16;2.13;;;1.30;;
9115;SDS011;4593;53.652;10.168;2022-09-01T11:34:43;1.20;;;1.20;;
9115;SDS011;4593;53.652;10.168;2022-09-01T11:37:14;1.33;;;1.23;;
9115;SDS011;4593;53.652;10.168;2022-09-01T11:39:42;1.40;;;1.20;;
9115;SDS011;4593;53.652;10.168;2022-09-01T11:52:28;2.03;;;1.30;;
9115;SDS011;4593;53.652;10.168;2022-09-01T11:54:55;1.40;;;1.30;;
9115;SDS011;4593;53.652;10.168;2022-09-01T11:59:50;1.20;;;1.20;;
9115;SDS011;4593;53.652;10.168;2022-09-01T12:02:24;1.33;;;1.23;;
9115;SDS011;4593;53.652;10.168;2022-09-01T12:04:51;1.80;;;1.50;;
9115;SDS011;4593;53.652;10.168;2022-09-01T12:09:53;1.20;;;1.20;;
9115;SDS011;4593;53.652;10.168;2022-09-01T12:12:30;1.43;;;1.33;;
9115;SDS011;4593;53.652;10.168;2022-09-01T12:17:31;1.70;;;1.37;;
9115;SDS011;4593;53.652;10.168;2022-09-01T12:20:17;1.50;;;1.40;;
9115;SDS011;4593;53.652;10.168;2022-09-01T12:22:43;1.50;;;1.40;;
9115;SDS011;4593;53.652;10.168;2022-09-01T12:25:17;1.30;;;1.20;;
9115;SDS011;4593;53.652;10.168;2022-09-01T12:27:48;1.73;;;1.40;;
9115;SDS011;4593;53.652;10.168;2022-09-01T12:30:14;1.83;;;1.57;;
9115;SDS011;4593;53.652;10.168;2022-09-01T12:32:41;1.17;;;1.13;;
9115;SDS011;4593;53.652;10.168;2022-09-01T12:35:19;1.63;;;1.30;;
9115;SDS011;4593;53.652;10.168;2022-09-01T12:37:46;1.40;;;1.30;;
9115;SDS011;4593;53.652;10.168;2022-09-01T12:40:29;1.10;;;1.10;;
9115;SDS011;4593;53.652;10.168;2022-09-01T12:42:55;1.30;;;1.20;;
9115;SDS011;4593;53.652;10.168;2022-09-01T12:45:38;1.30;;;1.20;;
9115;SDS011;4593;53.652;10.168;2022-09-01T12:48:05;1.20;;;1.20;;
9115;SDS011;4593;53.652;10.168;2022-09-01T12:50:32;1.70;;;1.60;;
9115;SDS011;4593;53.652;10.168;2022-09-01T12:53:00;1.50;;;1.40;;
9115;SDS011;4593;53.652;10.168;2022-09-01T12:55:29;1.83;;;1.33;;
9115;SDS011;4593;53.652;10.168;2022-09-01T12:57:56;1.40;;;1.30;;
9115;SDS011;4593;53.652;10.168;2022-09-01T13:00:27;1.53;;;1.43;;
9115;SDS011;4593;53.652;10.168;2022-09-01T13:05:31;1.57;;;1.40;;
9115;SDS011;4593;53.652;10.168;2022-09-01T13:07:59;1.40;;;1.30;;
9115;SDS011;4593;53.652;10.168;2022-09-01T13:10:29;5.77;;;1.40;;
9115;SDS011;4593;53.652;10.168;2022-09-01T13:12:56;1.13;;;1.13;;
9115;SDS011;4593;53.652;10.168;2022-09-01T13:15:22;1.40;;;1.30;;
9115;SDS011;4593;53.652;10.168;2022-09-01T13:17:49;1.27;;;1.20;;
9115;SDS011;4593;53.652;10.168;2022-09-01T13:20:15;1.50;;;1.40;;
9115;SDS011;4593;53.652;10.168;2022-09-01T13:22:42;1.43;;;1.30;;
9115;SDS011;4593;53.652;10.168;2022-09-01T13:25:12;1.63;;;1.40;;
9115;SDS011;4593;53.652;10.168;2022-09-01T13:27:42;2.23;;;1.20;;
9115;SDS011;4593;53.652;10.168;2022-09-01T13:30:09;1.33;;;1.20;;
9115;SDS011;4593;53.652;10.168;2022-09-01T13:32:35;1.50;;;1.40;;
9115;SDS011;4593;53.652;10.168;2022-09-01T13:35:02;1.20;;;1.20;;
9115;SDS011;4593;53.652;10.168;2022-09-01T13:37:28;1.10;;;1.10;;
9115;SDS011;4593;53.652;10.168;2022-09-01T13:39:54;1.40;;;1.30;;
9115;SDS011;4593;53.652;10.168;2022-09-01T13:42:20;1.13;;;1.10;;
9115;SDS011;4593;53.652;10.168;2022-09-01T13:44:47;1.67;;;1.43;;
9115;SDS011;4593;53.652;10.168;2022-09-01T13:47:13;1.20;;;1.20;;
9115;SDS011;4593;53.652;10.168;2022-09-01T13:49:39;1.40;;;1.30;;
9115;SDS011;4593;53.652;10.168;2022-09-01T13:52:05;1.40;;;1.30;;
9115;SDS011;4593;53.652;10.168;2022-09-01T13:54:31;1.47;;;1.30;;
9115;SDS011;4593;53.652;10.168;2022-09-01T13:56:57;1.40;;;1.30;;
9115;SDS011;4593;53.652;10.168;2022-09-01T13:59:23;3.73;;;1.30;;
9115;SDS011;4593;53.652;10.168;2022-09-01T14:01:49;1.20;;;1.20;;
9115;SDS011;4593;53.652;10.168;2022-09-01T14:04:15;1.40;;;1.30;;
9115;SDS011;4593;53.652;10.168;2022-09-01T14:06:44;1.37;;;1.27;;
9115;SDS011;4593;53.652;10.168;2022-09-01T14:09:10;1.17;;;1.17;;
9115;SDS011;4593;53.652;10.168;2022-09-01T14:11:37;1.30;;;1.20;;
9115;SDS011;4593;53.652;10.168;2022-09-01T14:14:03;1.23;;;1.20;;
9115;SDS011;4593;53.652;10.168;2022-09-01T14:16:29;1.40;;;1.30;;
9115;SDS011;4593;53.652;10.168;2022-09-01T14:18:55;1.83;;;1.73;;
9115;SDS011;4593;53.652;10.168;2022-09-01T14:21:23;1.40;;;1.30;;
9115;SDS011;4593;53.652;10.168;2022-09-01T14:23:50;3.00;;;1.23;;
9115;SDS011;4593;53.652;10.168;2022-09-01T14:26:16;1.20;;;1.20;;
9115;SDS011;4593;53.652;10.168;2022-09-01T14:28:42;1.43;;;1.30;;
9115;SDS011;4593;53.652;10.168;2022-09-01T14:31:10;1.40;;;1.30;;
9115;SDS011;4593;53.652;10.168;2022-09-01T14:33:38;2.57;;;1.40;;
9115;SDS011;4593;53.652;10.168;2022-09-01T14:36:05;1.30;;;1.20;;
9115;SDS011;4593;53.652;10.168;2022-09-01T14:38:31;6.43;;;1.40;;
9115;SDS011;4593;53.652;10.168;2022-09-01T14:40:57;1.13;;;1.13;;
9115;SDS011;4593;53.652;10.168;2022-09-01T14:43:23;1.30;;;1.30;;
9115;SDS011;4593;53.652;10.168;2022-09-01T14:46:00;1.00;;;1.00;;
9115;SDS011;4593;53.652;10.168;2022-09-01T14:48:30;1.40;;;1.30;;
9115;SDS011;4593;53.652;10.168;2022-09-01T14:50:56;1.20;;;1.20;;
9115;SDS011;4593;53.652;10.168;2022-09-01T14:53:21;1.37;;;1.33;;
9115;SDS011;4593;53.652;10.168;2022-09-01T14:55:48;1.50;;;1.30;;
9115;SDS011;4593;53.652;10.168;2022-09-01T14:58:13;1.50;;;1.40;;
9115;SDS011;4593;53.652;10.168;2022-09-01T15:00:39;1.20;;;1.20;;
9115;SDS011;4593;53.652;10.168;2022-09-01T15:03:06;1.40;;;1.30;;
9115;SDS011;4593;53.652;10.168;2022-09-01T15:05:34;1.40;;;1.30;;
9115;SDS011;4593;53.652;10.168;2022-09-01T15:08:00;1.40;;;1.30;;
9115;SDS011;4593;53.652;10.168;2022-09-01T15:10:26;1.30;;;1.20;;
9115;SDS011;4593;53.652;10.168;2022-09-01T15:12:56;1.40;;;1.30;;
9115;SDS011;4593;53.652;10.168;2022-09-01T15:15:24;1.40;;;1.30;;
9115;SDS011;4593;53.652;10.168;2022-09-01T15:17:50;1.40;;;1.30;;
9115;SDS011;4593;53.652;10.168;2022-09-01T15:20:17;1.40;;;1.30;;
9115;SDS011;4593;53.652;10.168;2022-09-01T15:23:02;1.30;;;1.30;;
9115;SDS011;4593;53.652;10.168;2022-09-01T15:25:28;1.53;;;1.40;;
9115;SDS011;4593;53.652;10.168;2022-09-01T15:27:54;3.23;;;1.40;;
9115;SDS011;4593;53.652;10.168;2022-09-01T15:30:20;1.30;;;1.30;;
9115;SDS011;4593;53.652;10.168;2022-09-01T15:32:47;3.63;;;1.60;;
9115;SDS011;4593;53.652;10.168;2022-09-01T15:35:14;1.90;;;1.50;;
9115;SDS011;4593;53.652;10.168;2022-09-01T15:37:40;1.50;;;1.40;;
9115;SDS011;4593;53.652;10.168;2022-09-01T15:40:07;5.50;;;2.47;;
9115;SDS011;4593;53.652;10.168;2022-09-01T15:42:34;3.33;;;1.93;;
9115;SDS011;4593;53.652;10.168;2022-09-01T15:45:03;1.50;;;1.40;;
9115;SDS011;4593;53.652;10.168;2022-09-01T15:47:29;1.50;;;1.40;;
9115;SDS011;4593;53.652;10.168;2022-09-01T15:49:55;1.83;;;1.73;;
9115;SDS011;4593;53.652;10.168;2022-09-01T15:52:22;4.13;;;1.33;;
9115;SDS011;4593;53.652;10.168;2022-09-01T15:54:48;1.37;;;1.20;;
9115;SDS011;4593;53.652;10.168;2022-09-01T15:57:14;1.40;;;1.30;;
9115;SDS011;4593;53.652;10.168;2022-09-01T15:59:40;1.47;;;1.37;;
9115;SDS011;4593;53.652;10.168;2022-09-01T16:02:07;1.20;;;1.20;;
9115;SDS011;4593;53.652;10.168;2022-09-01T16:04:34;1.40;;;1.30;;
9115;SDS011;4593;53.652;10.168;2022-09-01T16:07:00;1.60;;;1.30;;
9115;SDS011;4593;53.652;10.168;2022-09-01T16:09:27;1.30;;;1.30;;
9115;SDS011;4593;53.652;10.168;2022-09-01T16:11:53;1.70;;;1.60;;
9115;SDS011;4593;53.652;10.168;2022-09-01T16:14:19;1.60;;;1.50;;
9115;SDS011;4593;53.652;10.168;2022-09-01T16:21:48;1.50;;;1.40;;
9115;SDS011;4593;53.652;10.168;2022-09-01T16:24:17;1.70;;;1.60;;
9115;SDS011;4593;53.652;10.168;2022-09-01T16:26:45;4.00;;;2.60;;